createdAt,value
2018-05-04T00:01:57.319Z,12.50
2018-05-04T00:04:23.542Z,12.60
2018-05-04T00:06:49.745Z,12.50
2018-05-04T00:09:16.723Z,12.60
2018-05-04T00:11:42.965Z,12.60
2018-05-04T00:14:09.171Z,12.60
2018-05-04T00:16:35.403Z,12.70
2018-05-04T00:19:01.596Z,12.70
2018-05-04T00:21:27.823Z,12.60
2018-05-04T00:23:54.036Z,12.60
2018-05-04T00:26:20.274Z,12.50
2018-05-04T00:28:46.499Z,12.50
2018-05-04T00:31:12.694Z,12.50
2018-05-04T00:33:38.968Z,12.40
2018-05-04T00:36:05.179Z,12.30
2018-05-04T00:38:31.391Z,12.20
2018-05-04T00:40:57.616Z,12.20
2018-05-04T00:43:23.819Z,12.10
2018-05-04T00:45:50.807Z,12.10
2018-05-04T00:48:17.008Z,12.10
2018-05-04T00:50:43.228Z,12.10
2018-05-04T00:53:10.242Z,12.00
2018-05-04T00:55:36.475Z,12.00
2018-05-04T00:58:03.460Z,12.10
2018-05-04T01:00:29.665Z,12.00
2018-05-04T01:02:56.650Z,12.00
2018-05-04T01:05:22.855Z,12.00
2018-05-04T01:10:35.480Z,11.90
2018-05-04T01:13:02.435Z,11.90
2018-05-04T01:15:29.403Z,11.80
2018-05-04T01:17:55.602Z,11.80
2018-05-04T01:20:22.562Z,11.70
2018-05-04T01:22:49.531Z,11.70
2018-05-04T01:25:15.731Z,11.60
2018-05-04T01:27:42.697Z,11.60
2018-05-04T01:30:08.968Z,11.60
2018-05-04T01:32:35.899Z,11.60
2018-05-04T01:35:02.962Z,11.60
2018-05-04T01:37:29.193Z,11.60
2018-05-04T01:39:55.446Z,11.70
2018-05-04T01:42:21.667Z,11.70
2018-05-04T01:44:47.891Z,11.70
2018-05-04T01:47:14.117Z,11.80
2018-05-04T01:49:40.314Z,11.90
2018-05-04T01:52:06.551Z,11.90
2018-05-04T01:54:32.779Z,11.90
2018-05-04T01:57:00.584Z,11.90
2018-05-04T01:59:29.444Z,11.90
2018-05-04T02:01:59.119Z,11.90
2018-05-04T02:04:27.745Z,11.90
2018-05-04T02:06:58.086Z,11.90
2018-05-04T02:09:26.390Z,11.80
2018-05-04T02:11:55.023Z,11.90
2018-05-04T02:14:23.963Z,12.00
2018-05-04T02:16:52.044Z,12.10
2018-05-04T02:19:23.100Z,12.20
2018-05-04T02:21:51.717Z,12.20
2018-05-04T02:24:19.881Z,12.20
2018-05-04T02:26:47.870Z,12.20
2018-05-04T02:29:14.885Z,12.20
2018-05-04T02:31:41.851Z,12.20
2018-05-04T02:34:08.076Z,12.20
2018-05-04T02:36:34.353Z,12.20
2018-05-04T02:39:00.596Z,12.20
2018-05-04T02:41:26.826Z,12.30
2018-05-04T02:43:53.122Z,12.30
2018-05-04T02:46:19.381Z,12.30
2018-05-04T02:48:47.405Z,12.30
2018-05-04T02:51:14.884Z,12.30
2018-05-04T02:53:42.492Z,12.30
2018-05-04T02:56:08.724Z,12.20
2018-05-04T02:58:36.232Z,12.20
2018-05-04T03:01:02.459Z,12.20
2018-05-04T03:03:28.686Z,12.20
2018-05-04T03:05:55.031Z,12.20
2018-05-04T03:08:22.897Z,12.20
2018-05-04T03:10:49.191Z,12.20
2018-05-04T03:13:16.152Z,12.20
2018-05-04T03:15:42.510Z,12.20
2018-05-04T03:18:09.704Z,12.20
2018-05-04T03:20:35.903Z,12.20
2018-05-04T03:23:02.168Z,12.20
2018-05-04T03:25:28.762Z,12.20
2018-05-04T03:27:54.977Z,12.20
2018-05-04T03:30:21.193Z,12.20
2018-05-04T03:32:47.408Z,12.20
2018-05-04T03:35:15.006Z,12.20
2018-05-04T03:37:41.240Z,12.10
2018-05-04T03:40:07.442Z,12.20
2018-05-04T03:42:34.430Z,12.10
2018-05-04T03:45:00.675Z,12.10
2018-05-04T03:47:26.884Z,12.10
2018-05-04T03:49:53.128Z,12.10
2018-05-04T03:52:20.946Z,12.00
2018-05-04T03:54:47.908Z,12.00
2018-05-04T03:57:20.310Z,11.90
2018-05-04T03:59:52.661Z,11.90
2018-05-04T04:02:25.134Z,11.90
2018-05-04T04:04:51.321Z,11.90
2018-05-04T04:07:17.567Z,11.90
2018-05-04T04:09:44.527Z,11.90
2018-05-04T04:12:10.759Z,11.90
2018-05-04T04:14:36.955Z,11.90
2018-05-04T04:17:03.194Z,12.00
2018-05-04T04:19:29.391Z,12.10
2018-05-04T04:21:55.607Z,12.10
2018-05-04T04:24:21.803Z,12.10
2018-05-04T04:26:48.770Z,12.20
2018-05-04T04:29:15.000Z,12.10
2018-05-04T04:31:41.211Z,12.20
2018-05-04T04:34:07.430Z,12.20
2018-05-04T04:36:34.379Z,12.40
2018-05-04T04:39:00.616Z,12.30
2018-05-04T04:41:27.579Z,12.40
2018-05-04T04:43:53.799Z,12.40
2018-05-04T04:46:20.047Z,12.60
2018-05-04T04:48:46.324Z,12.60
2018-05-04T04:51:12.575Z,12.50
2018-05-04T04:53:39.546Z,12.50
2018-05-04T04:56:05.752Z,12.40
2018-05-04T04:58:32.755Z,12.40
2018-05-04T05:00:58.959Z,12.40
2018-05-04T05:03:25.183Z,12.50
2018-05-04T05:05:51.420Z,12.50
2018-05-04T05:08:17.613Z,12.50
2018-05-04T05:10:44.571Z,12.50
2018-05-04T05:13:11.503Z,12.60
2018-05-04T05:15:38.473Z,12.60
2018-05-04T05:18:04.671Z,12.60
2018-05-04T05:20:30.881Z,12.60
2018-05-04T05:22:57.091Z,12.70
2018-05-04T05:25:23.316Z,12.70
2018-05-04T05:27:49.571Z,12.60
2018-05-04T05:30:15.762Z,12.60
2018-05-04T05:32:41.990Z,12.70
2018-05-04T05:35:08.182Z,12.80
2018-05-04T05:37:34.403Z,12.90
2018-05-04T05:40:00.627Z,13.00
2018-05-04T05:42:26.855Z,13.10
2018-05-04T05:44:53.077Z,13.00
2018-05-04T05:47:19.287Z,13.10
2018-05-04T05:49:45.530Z,13.20
2018-05-04T05:52:11.804Z,13.20
2018-05-04T05:54:38.826Z,13.30
2018-05-04T05:57:05.024Z,13.20
2018-05-04T05:59:31.218Z,13.30
2018-05-04T06:01:58.185Z,13.20
2018-05-04T06:04:24.381Z,13.20
2018-05-04T06:06:51.342Z,13.30
2018-05-04T06:09:18.388Z,13.30
2018-05-04T06:11:44.528Z,13.20
2018-05-04T06:14:10.741Z,13.30
2018-05-04T06:16:37.686Z,13.40
2018-05-04T06:19:04.642Z,13.20
2018-05-04T06:21:31.607Z,13.30
2018-05-04T06:23:57.809Z,13.30
2018-05-04T06:26:24.022Z,13.40
2018-05-04T06:28:50.218Z,13.30
2018-05-04T06:31:16.457Z,13.40
2018-05-04T06:33:42.733Z,13.50
2018-05-04T06:36:08.936Z,13.40
2018-05-04T06:38:35.150Z,13.70
2018-05-04T06:41:01.357Z,13.70
2018-05-04T06:43:27.574Z,14.00
2018-05-04T06:45:53.824Z,14.10
2018-05-04T06:48:20.018Z,14.20
2018-05-04T06:50:46.962Z,14.30
2018-05-04T06:53:13.926Z,14.40
2018-05-04T06:55:40.163Z,14.40
2018-05-04T06:58:06.401Z,14.40
2018-05-04T07:00:32.641Z,14.20
2018-05-04T07:02:58.869Z,14.30
2018-05-04T07:05:25.087Z,14.30
2018-05-04T07:07:51.280Z,14.30
2018-05-04T07:10:18.277Z,15.00
2018-05-04T07:12:44.503Z,14.90
2018-05-04T07:15:10.781Z,15.30
2018-05-04T07:17:36.970Z,15.40
2018-05-04T07:20:03.215Z,15.10
2018-05-04T07:22:29.426Z,15.30
2018-05-04T07:24:55.660Z,15.50
2018-05-04T07:27:21.925Z,16.00
2018-05-04T07:29:48.115Z,16.00
2018-05-04T07:32:14.339Z,15.70
2018-05-04T07:34:40.559Z,15.80
2018-05-04T07:37:06.760Z,15.90
2018-05-04T07:39:33.730Z,15.80
2018-05-04T07:41:59.945Z,15.80
2018-05-04T07:44:26.886Z,16.20
2018-05-04T07:46:53.863Z,16.00
2018-05-04T07:49:20.082Z,15.90
2018-05-04T07:51:46.306Z,16.10
2018-05-04T07:54:12.529Z,16.00
2018-05-04T07:56:40.692Z,15.70
2018-05-04T07:59:07.630Z,15.80
2018-05-04T08:01:34.613Z,15.80
2018-05-04T08:04:00.859Z,15.80
2018-05-04T08:06:27.103Z,16.20
2018-05-04T08:08:53.338Z,16.40
2018-05-04T08:11:19.531Z,16.10
2018-05-04T08:13:45.756Z,16.00
2018-05-04T08:16:11.990Z,15.90
2018-05-04T08:18:38.188Z,16.10
2018-05-04T08:21:04.403Z,16.40
2018-05-04T08:23:30.599Z,16.50
2018-05-04T08:25:56.842Z,16.60
2018-05-04T08:28:23.099Z,16.40
2018-05-04T08:30:49.294Z,16.30
2018-05-04T08:33:15.516Z,16.10
2018-05-04T08:35:41.740Z,16.10
2018-05-04T08:38:07.990Z,16.60
2018-05-04T08:40:34.194Z,16.70
2018-05-04T08:43:00.513Z,16.70
2018-05-04T08:45:26.680Z,16.60
2018-05-04T08:47:52.871Z,16.50
2018-05-04T08:50:19.085Z,16.90
2018-05-04T08:52:46.038Z,16.30
2018-05-04T08:55:12.983Z,16.20
2018-05-04T08:57:39.957Z,16.50
2018-05-04T09:00:06.166Z,16.50
2018-05-04T09:02:32.392Z,16.20
2018-05-04T09:04:59.376Z,16.40
2018-05-04T09:07:25.571Z,16.30
2018-05-04T09:09:52.527Z,16.90
2018-05-04T09:12:18.724Z,16.80
2018-05-04T09:14:45.690Z,16.60
2018-05-04T09:17:12.663Z,16.60
2018-05-04T09:19:38.850Z,16.50
2018-05-04T09:22:05.074Z,16.60
2018-05-04T09:24:31.275Z,17.10
2018-05-04T09:26:57.798Z,17.30
2018-05-04T09:29:24.167Z,17.60
2018-05-04T09:31:51.272Z,17.50
2018-05-04T09:34:17.679Z,17.40
2018-05-04T09:36:44.060Z,17.10
2018-05-04T09:39:10.459Z,17.10
2018-05-04T09:41:36.844Z,17.20
2018-05-04T09:44:03.239Z,17.20
2018-05-04T09:46:29.632Z,17.30
2018-05-04T09:48:56.743Z,17.20
2018-05-04T09:51:23.271Z,17.20
2018-05-04T09:53:49.643Z,17.10
2018-05-04T09:56:16.031Z,17.00
2018-05-04T09:58:42.419Z,17.10
2018-05-04T10:01:09.536Z,17.10
2018-05-04T10:03:35.993Z,17.10
2018-05-04T10:06:03.188Z,17.30
2018-05-04T10:08:29.653Z,17.20
2018-05-04T10:10:56.095Z,17.30
2018-05-04T10:13:22.471Z,17.20
2018-05-04T10:15:49.602Z,17.30
2018-05-04T10:18:15.988Z,17.30
2018-05-04T10:20:42.383Z,17.30
2018-05-04T10:23:09.519Z,17.70
2018-05-04T10:25:35.889Z,17.60
2018-05-04T10:28:02.276Z,17.90
2018-05-04T10:30:28.646Z,17.90
2018-05-04T10:32:55.781Z,17.60
2018-05-04T10:35:22.216Z,17.60
2018-05-04T10:37:49.363Z,17.90
2018-05-04T10:40:16.504Z,17.90
2018-05-04T10:42:42.891Z,17.90
2018-05-04T10:45:09.270Z,17.80
2018-05-04T10:47:35.959Z,17.80
2018-05-04T10:50:02.360Z,17.80
2018-05-04T10:52:28.752Z,17.80
2018-05-04T10:54:55.144Z,17.80
2018-05-04T10:57:22.291Z,18.00
2018-05-04T10:59:49.435Z,18.10
2018-05-04T11:02:16.560Z,18.50
2018-05-04T11:04:42.927Z,18.50
2018-05-04T11:07:10.062Z,18.60
2018-05-04T11:09:36.483Z,18.60
2018-05-04T11:12:03.714Z,18.90
2018-05-04T11:14:30.784Z,18.70
2018-05-04T11:16:57.927Z,18.80
2018-05-04T11:19:24.399Z,18.80
2018-05-04T11:21:50.720Z,19.10
2018-05-04T11:24:17.111Z,19.10
2018-05-04T11:26:43.507Z,19.20
2018-05-04T11:29:10.627Z,19.20
2018-05-04T11:31:37.764Z,19.00
2018-05-04T11:34:04.201Z,18.90
2018-05-04T11:36:30.586Z,19.10
2018-05-04T11:38:56.994Z,19.80
2018-05-04T11:41:24.159Z,19.60
2018-05-04T11:43:51.299Z,19.50
2018-05-04T11:46:17.677Z,19.40
2018-05-04T11:48:44.074Z,19.80
2018-05-04T11:51:11.221Z,19.80
2018-05-04T11:53:38.362Z,19.80
2018-05-04T11:56:04.784Z,19.70
2018-05-04T11:58:31.155Z,19.50
2018-05-04T12:00:58.294Z,19.80
2018-05-04T12:03:25.422Z,20.00
2018-05-04T12:05:52.580Z,20.20
2018-05-04T12:08:18.983Z,20.20
2018-05-04T12:10:45.433Z,20.30
2018-05-04T12:13:11.865Z,20.80
2018-05-04T12:15:38.281Z,21.20
2018-05-04T12:18:04.676Z,20.90
2018-05-04T12:20:31.800Z,20.90
2018-05-04T12:22:58.220Z,20.90
2018-05-04T12:25:24.589Z,20.90
2018-05-04T12:27:51.720Z,21.20
2018-05-04T12:30:18.107Z,21.10
2018-05-04T12:32:44.496Z,21.50
2018-05-04T12:35:10.887Z,21.10
2018-05-04T12:37:37.292Z,21.00
2018-05-04T12:40:03.655Z,21.10
2018-05-04T12:42:30.052Z,20.80
2018-05-04T12:44:57.168Z,21.20
2018-05-04T12:47:23.563Z,21.10
2018-05-04T12:49:49.961Z,20.80
2018-05-04T12:52:17.072Z,20.90
2018-05-04T12:54:43.466Z,20.90
2018-05-04T12:57:09.847Z,21.40
2018-05-04T12:59:36.280Z,21.60
2018-05-04T13:02:02.723Z,21.20
2018-05-04T13:04:29.113Z,20.80
2018-05-04T13:06:55.559Z,20.80
2018-05-04T13:09:21.972Z,20.90
2018-05-04T13:11:48.396Z,21.40
2018-05-04T13:14:15.603Z,22.00
2018-05-04T13:16:42.103Z,22.00
2018-05-04T13:19:08.498Z,22.50
2018-05-04T13:21:35.760Z,21.50
2018-05-04T13:24:02.199Z,21.50
2018-05-04T13:26:30.807Z,20.80
2018-05-04T13:28:57.212Z,20.70
2018-05-04T13:31:24.341Z,20.80
2018-05-04T13:33:51.501Z,20.80
2018-05-04T13:36:17.910Z,20.70
2018-05-04T13:38:44.387Z,20.90
2018-05-04T13:41:10.825Z,21.00
2018-05-04T13:43:38.083Z,21.30
2018-05-04T13:46:05.237Z,21.30
2018-05-04T13:48:32.428Z,21.30
2018-05-04T13:50:58.831Z,21.20
2018-05-04T13:53:26.010Z,21.60
2018-05-04T13:55:52.428Z,21.50
2018-05-04T13:58:18.844Z,21.80
2018-05-04T14:00:46.010Z,22.50
2018-05-04T14:03:12.483Z,22.40
2018-05-04T14:05:38.972Z,22.30
2018-05-04T14:08:06.162Z,22.00
2018-05-04T14:10:32.565Z,21.90
2018-05-04T14:12:58.947Z,21.70
2018-05-04T14:15:25.389Z,21.80
2018-05-04T14:17:51.821Z,21.80
2018-05-04T14:20:18.273Z,21.40
2018-05-04T14:22:44.740Z,21.80
2018-05-04T14:25:11.117Z,21.70
2018-05-04T14:27:37.543Z,21.60
2018-05-04T14:30:03.939Z,21.60
2018-05-04T14:32:31.155Z,21.50
2018-05-04T14:34:57.597Z,21.50
2018-05-04T14:37:23.977Z,22.30
2018-05-04T14:39:50.407Z,22.60
2018-05-04T14:42:16.835Z,22.70
2018-05-04T14:44:43.240Z,22.50
2018-05-04T14:47:09.659Z,22.10
2018-05-04T14:49:36.808Z,21.60
2018-05-04T14:52:03.228Z,21.60
2018-05-04T14:54:29.617Z,21.70
2018-05-04T14:56:56.039Z,21.70
2018-05-04T14:59:23.150Z,21.70
2018-05-04T15:01:49.544Z,21.60
2018-05-04T15:04:15.987Z,21.20
2018-05-04T15:06:42.371Z,21.00
2018-05-04T15:09:08.773Z,21.00
2018-05-04T15:11:35.164Z,21.30
2018-05-04T15:14:02.344Z,21.90
2018-05-04T15:16:28.788Z,21.80
2018-05-04T15:18:55.280Z,21.90
2018-05-04T15:21:22.480Z,21.50
2018-05-04T15:23:48.901Z,21.40
2018-05-04T15:26:15.281Z,21.20
2018-05-04T15:28:41.752Z,20.90
2018-05-04T15:31:08.208Z,20.90
2018-05-04T15:33:34.605Z,20.90
2018-05-04T15:36:01.735Z,20.90
2018-05-04T15:38:28.184Z,20.90
2018-05-04T15:40:55.315Z,20.80
2018-05-04T15:43:22.465Z,20.90
2018-05-04T15:45:48.856Z,20.90
2018-05-04T15:48:21.304Z,20.80
2018-05-04T15:50:54.588Z,20.80
2018-05-04T15:53:20.991Z,20.70
2018-05-04T15:55:47.423Z,20.70
2018-05-04T15:58:13.803Z,20.50
2018-05-04T16:00:40.961Z,20.50
2018-05-04T16:03:08.187Z,20.30
2018-05-04T16:05:34.593Z,20.30
2018-05-04T16:08:00.968Z,20.20
2018-05-04T16:10:28.107Z,20.40
2018-05-04T16:12:54.607Z,20.40
2018-05-04T16:15:20.997Z,20.40
2018-05-04T16:17:48.169Z,20.20
2018-05-04T16:20:14.678Z,20.20
2018-05-04T16:22:41.287Z,20.30
2018-05-04T16:25:07.825Z,20.40
2018-05-04T16:27:34.252Z,20.10
2018-05-04T16:30:00.633Z,20.20
2018-05-04T16:32:27.819Z,20.20
2018-05-04T16:34:54.204Z,20.20
2018-05-04T16:37:21.343Z,20.40
2018-05-04T16:39:47.749Z,20.30
2018-05-04T16:42:14.168Z,20.20
2018-05-04T16:44:40.539Z,20.10
2018-05-04T16:47:13.091Z,20.00
2018-05-04T16:49:39.465Z,19.90
2018-05-04T16:52:05.858Z,19.50
2018-05-04T16:54:32.240Z,19.40
2018-05-04T16:56:59.413Z,19.50
2018-05-04T16:59:25.845Z,19.50
2018-05-04T17:01:53.032Z,19.80
2018-05-04T17:04:19.435Z,19.80
2018-05-04T17:06:45.842Z,19.50
2018-05-04T17:09:12.323Z,19.60
2018-05-04T17:11:39.460Z,19.50
2018-05-04T17:14:06.333Z,19.40
2018-05-04T17:16:33.799Z,19.10
2018-05-04T17:19:01.254Z,19.00
2018-05-04T17:21:29.308Z,18.80
2018-05-04T17:23:55.819Z,18.80
2018-05-04T17:26:23.219Z,18.80
2018-05-04T17:28:50.720Z,18.70
2018-05-04T17:31:19.074Z,18.60
2018-05-04T17:33:45.525Z,18.60
2018-05-04T17:36:12.846Z,18.40
2018-05-04T17:38:40.004Z,18.30
2018-05-04T17:41:06.941Z,18.20
2018-05-04T17:43:33.586Z,18.30
2018-05-04T17:46:00.788Z,18.10
2018-05-04T17:48:28.010Z,18.00
2018-05-04T17:50:54.400Z,18.00
2018-05-04T17:53:20.829Z,18.00
2018-05-04T17:55:47.250Z,17.90
2018-05-04T17:58:14.412Z,18.10
2018-05-04T18:00:41.565Z,18.10
2018-05-04T18:03:08.034Z,18.00
2018-05-04T18:05:35.138Z,17.90
2018-05-04T18:08:02.259Z,17.90
2018-05-04T18:10:28.665Z,17.80
2018-05-04T18:12:55.070Z,17.80
2018-05-04T18:15:22.008Z,17.60
2018-05-04T18:17:48.987Z,17.60
2018-05-04T18:20:15.221Z,17.50
2018-05-04T18:22:41.507Z,17.50
2018-05-04T18:25:08.462Z,17.30
2018-05-04T18:27:35.455Z,17.20
2018-05-04T18:30:01.670Z,17.20
2018-05-04T18:32:27.878Z,17.10
2018-05-04T18:34:54.858Z,17.00
2018-05-04T18:37:21.088Z,16.90
2018-05-04T18:39:47.287Z,16.90
2018-05-04T18:42:13.526Z,16.80
2018-05-04T18:44:39.746Z,16.70
2018-05-04T18:47:06.012Z,16.60
2018-05-04T18:49:32.245Z,16.50
2018-05-04T18:51:58.462Z,16.50
2018-05-04T18:54:24.749Z,16.40
2018-05-04T18:56:50.923Z,16.30
2018-05-04T18:59:17.157Z,16.10
2018-05-04T19:01:43.425Z,16.10
2018-05-04T19:04:09.649Z,15.90
2018-05-04T19:06:35.887Z,15.90
2018-05-04T19:09:02.173Z,15.90
2018-05-04T19:11:28.379Z,15.80
2018-05-04T19:13:54.614Z,15.70
2018-05-04T19:16:20.823Z,15.70
2018-05-04T19:18:47.797Z,15.70
2018-05-04T19:21:14.086Z,15.60
2018-05-04T19:23:40.301Z,15.70
2018-05-04T19:26:06.559Z,15.70
2018-05-04T19:28:32.797Z,15.70
2018-05-04T19:30:59.784Z,15.70
2018-05-04T19:33:26.031Z,15.70
2018-05-04T19:35:52.230Z,15.70
2018-05-04T19:38:18.466Z,15.70
2018-05-04T19:40:44.666Z,15.60
2018-05-04T19:43:11.633Z,15.40
2018-05-04T19:45:37.855Z,15.50
2018-05-04T19:48:04.107Z,15.40
2018-05-04T19:50:30.330Z,15.40
2018-05-04T19:52:56.537Z,15.40
2018-05-04T19:55:23.499Z,15.60
2018-05-04T19:57:49.724Z,15.60
2018-05-04T20:00:16.680Z,15.50
2018-05-04T20:02:43.033Z,15.50
2018-05-04T20:05:09.271Z,15.40
2018-05-04T20:07:35.472Z,15.40
2018-05-04T20:10:01.718Z,15.40
2018-05-04T20:12:27.947Z,15.40
2018-05-04T20:14:54.210Z,15.40
2018-05-04T20:17:20.438Z,15.50
2018-05-04T20:19:46.679Z,15.60
2018-05-04T20:22:12.879Z,15.60
2018-05-04T20:24:39.098Z,15.70
2018-05-04T20:27:05.326Z,15.70
2018-05-04T20:29:31.528Z,15.70
2018-05-04T20:31:58.547Z,15.50
2018-05-04T20:34:24.787Z,15.50
2018-05-04T20:36:51.776Z,15.40
2018-05-04T20:39:18.071Z,15.40
2018-05-04T20:41:45.023Z,15.30
2018-05-04T20:44:12.025Z,15.10
2018-05-04T20:46:38.211Z,15.10
2018-05-04T20:49:05.223Z,14.90
2018-05-04T20:51:31.442Z,14.90
2018-05-04T20:53:57.672Z,15.00
2018-05-04T20:56:23.891Z,15.10
2018-05-04T20:58:50.145Z,15.10
2018-05-04T21:01:16.351Z,15.20
2018-05-04T21:03:42.574Z,15.20
2018-05-04T21:06:08.779Z,15.20
2018-05-04T21:08:35.002Z,15.10
2018-05-04T21:11:01.242Z,15.10
2018-05-04T21:13:27.444Z,15.10
2018-05-04T21:15:54.447Z,14.90
2018-05-04T21:18:20.647Z,14.90
2018-05-04T21:20:46.860Z,14.80
2018-05-04T21:23:13.805Z,14.80
2018-05-04T21:25:40.775Z,14.70
2018-05-04T21:28:06.979Z,14.70
2018-05-04T21:30:33.939Z,14.60
2018-05-04T21:33:00.201Z,14.50
2018-05-04T21:35:26.403Z,14.60
2018-05-04T21:37:52.658Z,14.60
2018-05-04T21:40:18.958Z,14.70
2018-05-04T21:42:45.895Z,14.80
2018-05-04T21:45:12.891Z,14.80
2018-05-04T21:47:39.104Z,14.80
2018-05-04T21:50:05.338Z,14.90
2018-05-04T21:52:31.563Z,14.90
2018-05-04T21:54:57.775Z,15.00
2018-05-04T21:57:24.004Z,15.10
2018-05-04T21:59:50.223Z,15.10
2018-05-04T22:02:17.168Z,15.20
2018-05-04T22:04:44.128Z,15.20
2018-05-04T22:07:10.353Z,15.20
2018-05-04T22:09:37.331Z,15.10
2018-05-04T22:12:03.558Z,15.10
2018-05-04T22:14:29.774Z,15.00
2018-05-04T22:16:56.017Z,14.90
2018-05-04T22:19:22.251Z,14.90
2018-05-04T22:21:48.522Z,14.80
2018-05-04T22:24:14.742Z,14.70
2018-05-04T22:26:40.966Z,14.70
2018-05-04T22:29:07.295Z,14.70
2018-05-04T22:31:33.508Z,14.60
2018-05-04T22:33:59.722Z,14.50
2018-05-04T22:36:25.962Z,14.40
2018-05-04T22:38:52.216Z,14.40
2018-05-04T22:41:18.441Z,14.40
2018-05-04T22:43:44.639Z,14.40
2018-05-04T22:46:10.863Z,14.40
2018-05-04T22:48:37.081Z,14.40
2018-05-04T22:51:04.090Z,14.30
2018-05-04T22:53:30.314Z,14.20
2018-05-04T22:55:56.511Z,14.20
2018-05-04T22:58:22.734Z,14.10
2018-05-04T23:00:48.990Z,14.00
2018-05-04T23:03:15.182Z,14.00
2018-05-04T23:05:41.418Z,14.00
2018-05-04T23:08:07.612Z,14.00
2018-05-04T23:10:33.871Z,14.20
2018-05-04T23:13:00.067Z,14.20
2018-05-04T23:15:26.288Z,14.20
2018-05-04T23:17:52.505Z,14.20
2018-05-04T23:20:18.703Z,14.30
2018-05-04T23:22:44.929Z,14.20
2018-05-04T23:25:11.142Z,14.20
2018-05-04T23:27:38.101Z,14.10
2018-05-04T23:30:04.359Z,14.10
2018-05-04T23:32:30.581Z,14.00
2018-05-04T23:34:56.838Z,14.10
2018-05-04T23:37:23.030Z,14.20
2018-05-04T23:39:49.267Z,14.20
2018-05-04T23:42:15.498Z,14.10
2018-05-04T23:44:41.690Z,14.10
2018-05-04T23:47:08.653Z,14.00
2018-05-04T23:49:34.873Z,13.90
2018-05-04T23:52:01.807Z,13.90
2018-05-04T23:54:28.762Z,13.90
2018-05-04T23:56:55.787Z,13.80
2018-05-04T23:59:21.991Z,13.80
